Dallas Fort Worth International Airport
KDFW : now visible

Airfield :











YOU CAN JOIN US ON...

 
LOGIN :

Register | Disclaimer

   EN    FR    IT 

 









Legend :    VFR   Marginal VFR   IFR   Intensive IFR   Very Intensive IFR
Visi :
Ceiling :
>= 8 km
>= 3000ft
5 to 8 km
1000 to 3000 ft
1500m to 5 km
500 to 1000 ft
800 to 1500m
200 to 500 ft
< 800m
< 200 ft
Symbols :   Thunderstorms  Fog  Heavy snow  Heavy precipitations  Wind > 20 kt







- Airport Elevation : 607 ft
- IATA code : DFW


KDFW - Dallas Fort Worth International

CURRENT METAR :
  • 161253Z 01012KT 7SM OVC006 01/M01 A2991 RMK AO2 SLP127 T00061006

EXPIRED METARs :
  • 161153Z 02009KT 10SM OVC009 01/M01 A2988 RMK AO2 SLP118 T00111011 10022 20011 58005
  • 161053Z 36012KT 10SM OVC010 01/M01 A2988 RMK AO2 PRESFR SLP116 T00111011
  • 160953Z 35011KT 10SM OVC013 02/M02 A2992 RMK AO2 SLP129 T00171017

TAF KDFW
Valid from the 16 at 12:00 until the 17 at 18:00 UTC


161131Z 1612/1718 36009KT P6SM OVC012
TEMPO 1612/1615 OVC009
FM161800 09004KT P6SM BKN025
FM162100 15006KT P6SM SCT020 SCT100 BKN300
FM170500 18009KT 5SM BR BKN020
TEMPO 1706/1710 3SM BR
FM171100 31011KT P6SM SCT015 SCT300
KZFW FIR / North America



MET'MAP, your aeronautical weather chart ! - Copyright ORBIFLY December 2007 - Disclaimer

ORBIFLY MET'MAP TEAM :

Programming & Development : Alexandra Zaïnal
Concept & Development : Baudouin d'Aumeries
Co-Development & Prog : Marc-Olivier Méhu
Technical & hardware support : Manuel Goepfert

Contact : metmap@orbifly.com




SOURCES & CREDITS :

   NOAA       Earth
Advisory